createdAt,value
2022-11-09T00:04:40.804Z,15.5
2022-11-09T00:14:41.145Z,15.6
2022-11-09T00:24:41.361Z,15.6
2022-11-09T00:34:42.257Z,15.6
2022-11-09T00:44:43.162Z,15.6
2022-11-09T00:54:43.841Z,15.6
2022-11-09T01:14:45.060Z,15.3
2022-11-09T01:24:45.202Z,15.3
2022-11-09T01:34:45.639Z,15
2022-11-09T01:44:46.236Z,14.9
2022-11-09T01:54:46.996Z,14.9
2022-11-09T02:14:48.195Z,14.9
2022-11-09T02:24:50.813Z,14.9
2022-11-09T02:34:49.495Z,14.8
2022-11-09T02:44:49.939Z,14.7
2022-11-09T02:54:50.595Z,14.7
2022-11-09T03:14:51.811Z,14.5
2022-11-09T03:24:52.083Z,14.5
2022-11-09T03:34:52.964Z,14.5
2022-11-09T03:44:53.691Z,14.5
2022-11-09T03:54:54.755Z,14.6
2022-11-09T04:04:55.250Z,14.6
2022-11-09T04:14:56.166Z,14.5
2022-11-09T04:24:56.786Z,14.5
2022-11-09T04:34:57.690Z,14.5
2022-11-09T05:04:59.212Z,14.7
2022-11-09T05:25:00.712Z,14.6
2022-11-09T05:35:01.436Z,14.4
2022-11-09T05:45:21.237Z,14.2
2022-11-09T06:05:03.469Z,13.9
2022-11-09T06:35:05.194Z,13.6
2022-11-09T06:55:06.182Z,13.3
2022-11-09T07:15:07.112Z,12.9
2022-11-09T07:35:08.623Z,12.8
2022-11-09T07:45:09.515Z,13
2022-11-09T07:55:09.680Z,13.2
2022-11-09T08:15:10.172Z,13.7
2022-11-09T08:25:10.779Z,13.7
2022-11-09T08:35:11.822Z,13.9
2022-11-09T08:45:12.696Z,13.9
2022-11-09T08:55:13.303Z,13.9
2022-11-09T09:15:14.507Z,14.1
2022-11-09T09:25:15.071Z,14.2
2022-11-09T09:35:15.695Z,14.3
2022-11-09T09:45:16.449Z,14.5
2022-11-09T09:55:17.489Z,14.5
2022-11-09T10:05:18.406Z,14.5
2022-11-09T10:15:18.930Z,14.7
2022-11-09T10:25:32.528Z,15.3
2022-11-09T10:35:20.301Z,15.1
2022-11-09T10:45:20.774Z,14.8
2022-11-09T11:05:21.411Z,15.1
2022-11-09T11:15:21.881Z,15.2
2022-11-09T11:25:22.534Z,15.2
2022-11-09T11:35:23.369Z,15.2
2022-11-09T11:45:39.920Z,15.4
2022-11-09T11:55:24.687Z,15.4
2022-11-09T12:05:25.259Z,15.3
2022-11-09T12:25:26.108Z,15.9
2022-11-09T12:35:26.628Z,15.5
2022-11-09T12:45:26.906Z,15.1
2022-11-09T12:55:27.927Z,15
2022-11-09T13:05:28.734Z,15.5
2022-11-09T13:25:30.567Z,15.3
2022-11-09T13:35:30.905Z,15.2
2022-11-09T13:45:31.278Z,15.1
2022-11-09T13:55:31.552Z,15
2022-11-09T14:15:33.131Z,14.7
2022-11-09T14:25:34.170Z,14.7
2022-11-09T14:35:34.388Z,14.6
2022-11-09T14:55:35.162Z,14.8
2022-11-09T15:05:36.034Z,14.4
2022-11-09T15:15:36.735Z,14
2022-11-09T15:25:37.504Z,13.9
2022-11-09T15:35:37.801Z,13.9
2022-11-09T15:45:38.003Z,13.8
2022-11-09T15:55:38.316Z,13.7
2022-11-09T16:15:39.194Z,13.6
2022-11-09T16:25:40.201Z,13.5
2022-11-09T16:35:41.176Z,13.4
2022-11-09T16:45:41.576Z,13.3
2022-11-09T16:55:42.069Z,13.2
2022-11-09T17:05:42.348Z,13.1
2022-11-09T17:35:44.455Z,12.9
2022-11-09T17:55:45.654Z,12.7
2022-11-09T18:05:46.713Z,12.8
2022-11-09T18:15:47.369Z,12.7
2022-11-09T18:25:47.829Z,12.6
2022-11-09T18:35:47.980Z,12.5
2022-11-09T18:45:48.183Z,12.4
2022-11-09T18:55:49.082Z,12.3
2022-11-09T19:25:50.269Z,12
2022-11-09T19:36:08.358Z,11.9
2022-11-09T19:45:50.702Z,11.9
2022-11-09T19:55:51.579Z,11.8
2022-11-09T20:05:51.741Z,11.8
2022-11-09T20:15:52.639Z,11.6
2022-11-09T20:25:53.062Z,11.6
2022-11-09T20:35:53.669Z,11.4
2022-11-09T20:45:54.060Z,11.4
2022-11-09T20:55:54.394Z,11.3
2022-11-09T21:05:58.772Z,11.2
2022-11-09T21:25:55.668Z,11
2022-11-09T21:35:56.259Z,10.9
2022-11-09T21:45:57.173Z,10.8
2022-11-09T21:55:57.360Z,10.7
2022-11-09T22:05:58.296Z,10.7
2022-11-09T22:15:59.240Z,10.6
2022-11-09T22:26:00.110Z,10.6
2022-11-09T22:36:01.178Z,10.5
2022-11-09T22:46:01.744Z,10.5
2022-11-09T22:56:02.694Z,10.4
2022-11-09T23:06:03.729Z,10.3
2022-11-09T23:16:04.340Z,10.3
2022-11-09T23:26:04.498Z,10.2
2022-11-09T23:26:26.436Z,10.2
2022-11-09T23:36:11.045Z,10.1
2022-11-09T23:46:11.632Z,10
2022-11-09T23:56:12.530Z,10
